EDDL/DUS METAR and TAF weather

Enter ICAO airport designator
Station Type Date Time Source
EDDL METAR 2020/03/31 22:50 UTC NOAA

EDDL 312250Z VRB01KT CAVOK M01/M05 Q1027 NOSIG


Station Type Date Time Source
EDDL Decoded METAR 2020/03/31 22:50 UTC NOAA

Duesseldorf, Germany (EDDL) 51-18N 006-46E 41M
Mar 31, 2020 - 06:50 PM EDT / 2020.03.31 2250 UTC
Wind: Variable at 1 MPH (1 KT):0
Visibility: greater than 7 mile(s):0
Temperature: 30 F (-1 C)
Dew Point: 23 F (-5 C)
Relative Humidity: 74%
Pressure (altimeter): 30.33 in. Hg (1027 hPa)
ob: EDDL 312250Z VRB01KT CAVOK M01/M05 Q1027 NOSIG
cycle: 23

Station Type Date Time Source
EDDL TAF 2020/03/31 18:28 UTC NOAA

TAF EDDL 311700Z 3118/0124 03008KT CAVOK
BECMG 3120/3123 VRB03KT
TEMPO 0103/0109 15005KT
BECMG 0109/0112 31005KT

Example: see airport list